sensor_id;sensor_type;location;lat;lon;timestamp;pressure;altitude;pressure_sealevel;temperature;humidity
7768;BME280;3928;42.626;23.382;2022-10-04T00:02:20;94373.03;;;12.17;75.57
7768;BME280;3928;42.626;23.382;2022-10-04T00:04:52;94377.38;;;12.15;75.73
7768;BME280;3928;42.626;23.382;2022-10-04T00:07:25;94307.94;;;11.74;76.11
7768;BME280;3928;42.626;23.382;2022-10-04T00:09:55;94373.09;;;12.14;76.24
7768;BME280;3928;42.626;23.382;2022-10-04T00:12:26;94391.97;;;12.15;76.13
7768;BME280;3928;42.626;23.382;2022-10-04T00:14:56;94363.69;;;12.13;75.96
7768;BME280;3928;42.626;23.382;2022-10-04T00:17:26;94384.53;;;12.01;76.31
7768;BME280;3928;42.626;23.382;2022-10-04T00:19:55;94382.78;;;12.03;76.71
7768;BME280;3928;42.626;23.382;2022-10-04T00:22:25;94370.78;;;12.02;75.84
7768;BME280;3928;42.626;23.382;2022-10-04T00:25:18;94381.03;;;12.04;76.02
7768;BME280;3928;42.626;23.382;2022-10-04T00:31:11;94374.09;;;12.07;75.20
7768;BME280;3928;42.626;23.382;2022-10-04T00:33:40;94351.38;;;11.89;74.81
7768;BME280;3928;42.626;23.382;2022-10-04T00:36:37;94366.47;;;12.04;74.07
7768;BME280;3928;42.626;23.382;2022-10-04T00:39:25;94374.19;;;12.04;73.35
7768;BME280;3928;42.626;23.382;2022-10-04T00:42:02;94349.31;;;12.05;72.55
7768;BME280;3928;42.626;23.382;2022-10-04T00:44:36;94359.91;;;11.89;72.10
7768;BME280;3928;42.626;23.382;2022-10-04T00:47:16;94353.16;;;11.85;72.34
7768;BME280;3928;42.626;23.382;2022-10-04T00:49:49;94341.97;;;11.88;72.84
7768;BME280;3928;42.626;23.382;2022-10-04T00:52:19;94350.56;;;11.87;72.38
7768;BME280;3928;42.626;23.382;2022-10-04T00:54:51;94338.69;;;11.78;72.55
7768;BME280;3928;42.626;23.382;2022-10-04T00:57:24;94337.00;;;11.77;72.41
7768;BME280;3928;42.626;23.382;2022-10-04T00:59:54;94335.28;;;11.78;72.61
7768;BME280;3928;42.626;23.382;2022-10-04T01:02:27;94338.72;;;11.77;72.47
7768;BME280;3928;42.626;23.382;2022-10-04T01:05:00;94338.69;;;11.80;71.67
7768;BME280;3928;42.626;23.382;2022-10-04T01:07:31;94340.38;;;11.81;71.05
7768;BME280;3928;42.626;23.382;2022-10-04T01:10:21;94326.78;;;11.74;69.30
7768;BME280;3928;42.626;23.382;2022-10-04T01:12:54;94319.97;;;11.71;69.18
7768;BME280;3928;42.626;23.382;2022-10-04T01:15:28;94347.03;;;11.91;68.65
7768;BME280;3928;42.626;23.382;2022-10-04T01:18:13;94341.25;;;11.80;69.63
7768;BME280;3928;42.626;23.382;2022-10-04T01:20:50;94324.38;;;11.66;70.13
7768;BME280;3928;42.626;23.382;2022-10-04T01:23:38;94334.34;;;11.82;70.05
7768;BME280;3928;42.626;23.382;2022-10-04T01:26:37;94321.34;;;11.89;70.35
7768;BME280;3928;42.626;23.382;2022-10-04T01:29:10;94326.69;;;11.79;69.30
7768;BME280;3928;42.626;23.382;2022-10-04T01:31:40;94323.19;;;11.83;69.19
7768;BME280;3928;42.626;23.382;2022-10-04T01:34:07;94336.03;;;11.84;68.39
7768;BME280;3928;42.626;23.382;2022-10-04T01:36:37;94324.84;;;11.87;68.59
7768;BME280;3928;42.626;23.382;2022-10-04T01:39:06;94335.06;;;11.90;68.30
7768;BME280;3928;42.626;23.382;2022-10-04T01:41:41;94335.28;;;11.78;68.06
7768;BME280;3928;42.626;23.382;2022-10-04T01:44:12;94253.78;;;11.41;67.20
7768;BME280;3928;42.626;23.382;2022-10-04T01:46:42;94334.41;;;11.79;67.21
7768;BME280;3928;42.626;23.382;2022-10-04T01:49:14;94324.94;;;11.81;66.91
7768;BME280;3928;42.626;23.382;2022-10-04T01:51:46;94333.47;;;11.83;67.10
7768;BME280;3928;42.626;23.382;2022-10-04T01:54:19;94328.53;;;11.74;68.12
7768;BME280;3928;42.626;23.382;2022-10-04T01:56:52;94324.34;;;11.68;68.34
7768;BME280;3928;42.626;23.382;2022-10-04T01:59:27;94324.16;;;11.77;68.13
7768;BME280;3928;42.626;23.382;2022-10-04T02:02:00;94320.69;;;11.80;68.43
7768;BME280;3928;42.626;23.382;2022-10-04T02:04:32;94326.75;;;11.76;68.93
7768;BME280;3928;42.626;23.382;2022-10-04T02:07:00;94336.94;;;11.82;68.42
7768;BME280;3928;42.626;23.382;2022-10-04T02:09:32;94325.84;;;11.78;68.70
7768;BME280;3928;42.626;23.382;2022-10-04T02:12:00;94350.59;;;11.85;69.12
7768;BME280;3928;42.626;23.382;2022-10-04T02:14:31;94335.00;;;11.91;68.97
7768;BME280;3928;42.626;23.382;2022-10-04T02:16:59;94346.41;;;11.80;69.99
7768;BME280;3928;42.626;23.382;2022-10-04T02:19:32;94347.31;;;11.76;70.97
7768;BME280;3928;42.626;23.382;2022-10-04T02:22:02;94305.13;;;11.44;71.32
7768;BME280;3928;42.626;23.382;2022-10-04T02:24:32;94347.41;;;11.73;71.65
7768;BME280;3928;42.626;23.382;2022-10-04T02:27:01;94345.72;;;11.70;72.49
7768;BME280;3928;42.626;23.382;2022-10-04T02:29:28;94269.56;;;11.23;72.56
7768;BME280;3928;42.626;23.382;2022-10-04T02:31:55;94345.63;;;11.75;72.91
7768;BME280;3928;42.626;23.382;2022-10-04T02:34:40;94349.97;;;11.71;73.53
7768;BME280;3928;42.626;23.382;2022-10-04T02:37:07;94349.03;;;11.75;73.86
7768;BME280;3928;42.626;23.382;2022-10-04T02:39:41;94359.22;;;11.81;73.72
7768;BME280;3928;42.626;23.382;2022-10-04T02:42:13;94364.50;;;11.74;73.83
7768;BME280;3928;42.626;23.382;2022-10-04T02:44:44;94363.59;;;11.76;74.29
7768;BME280;3928;42.626;23.382;2022-10-04T02:47:17;94355.25;;;11.65;75.24
7768;BME280;3928;42.626;23.382;2022-10-04T02:49:48;94373.09;;;11.73;75.55
7768;BME280;3928;42.626;23.382;2022-10-04T02:52:21;94372.13;;;11.78;75.30
7768;BME280;3928;42.626;23.382;2022-10-04T02:54:56;94377.19;;;11.83;75.64
7768;BME280;3928;42.626;23.382;2022-10-04T02:57:28;94377.97;;;11.88;75.54
7768;BME280;3928;42.626;23.382;2022-10-04T03:00:09;94377.97;;;11.88;75.43
7768;BME280;3928;42.626;23.382;2022-10-04T03:02:39;94378.66;;;11.94;75.60
7768;BME280;3928;42.626;23.382;2022-10-04T03:05:08;94386.16;;;12.05;75.38
7768;BME280;3928;42.626;23.382;2022-10-04T03:07:38;94373.47;;;11.97;75.18
7768;BME280;3928;42.626;23.382;2022-10-04T03:10:10;94321.19;;;11.54;75.56
7768;BME280;3928;42.626;23.382;2022-10-04T03:12:38;94389.06;;;11.90;75.52
7768;BME280;3928;42.626;23.382;2022-10-04T03:15:06;94392.47;;;11.90;75.58
7768;BME280;3928;42.626;23.382;2022-10-04T03:17:35;94394.16;;;11.91;75.24
7768;BME280;3928;42.626;23.382;2022-10-04T03:20:02;94389.88;;;11.92;75.39
7768;BME280;3928;42.626;23.382;2022-10-04T03:22:30;94387.47;;;11.84;75.69
7768;BME280;3928;42.626;23.382;2022-10-04T03:24:57;94394.34;;;11.82;75.90
7768;BME280;3928;42.626;23.382;2022-10-04T03:27:30;94401.31;;;11.76;76.44
7768;BME280;3928;42.626;23.382;2022-10-04T03:29:58;94396.16;;;11.76;76.15
7768;BME280;3928;42.626;23.382;2022-10-04T03:32:27;94408.22;;;11.74;75.59
7768;BME280;3928;42.626;23.382;2022-10-04T03:34:57;94406.38;;;11.80;75.46
7768;BME280;3928;42.626;23.382;2022-10-04T03:37:27;94400.41;;;11.80;75.64
7768;BME280;3928;42.626;23.382;2022-10-04T03:39:56;94412.31;;;11.84;74.38
7768;BME280;3928;42.626;23.382;2022-10-04T03:42:26;94410.56;;;11.86;74.72
7768;BME280;3928;42.626;23.382;2022-10-04T03:45:02;94391.81;;;11.81;74.36
7768;BME280;3928;42.626;23.382;2022-10-04T03:47:32;94411.25;;;11.94;74.36
7768;BME280;3928;42.626;23.382;2022-10-04T03:50:05;94410.31;;;11.98;73.81
7768;BME280;3928;42.626;23.382;2022-10-04T03:52:41;94420.41;;;12.07;74.00
7768;BME280;3928;42.626;23.382;2022-10-04T03:55:11;94413.56;;;12.06;73.93
7768;BME280;3928;42.626;23.382;2022-10-04T03:57:42;94420.50;;;12.03;73.62
7768;BME280;3928;42.626;23.382;2022-10-04T04:00:14;94420.63;;;11.98;74.24
7768;BME280;3928;42.626;23.382;2022-10-04T04:02:44;94411.22;;;11.95;74.26
7768;BME280;3928;42.626;23.382;2022-10-04T04:05:18;94422.25;;;12.02;74.29
7768;BME280;3928;42.626;23.382;2022-10-04T04:07:54;94418.84;;;12.00;74.16
7768;BME280;3928;42.626;23.382;2022-10-04T04:10:27;94419.03;;;11.91;74.96
7768;BME280;3928;42.626;23.382;2022-10-04T04:13:00;94421.56;;;11.92;75.06
7768;BME280;3928;42.626;23.382;2022-10-04T04:15:31;94417.44;;;11.84;74.92
7768;BME280;3928;42.626;23.382;2022-10-04T04:18:00;94423.50;;;11.81;75.26
7768;BME280;3928;42.626;23.382;2022-10-04T04:20:31;94427.91;;;11.75;75.28
7768;BME280;3928;42.626;23.382;2022-10-04T04:23:01;94423.72;;;11.69;75.00
7768;BME280;3928;42.626;23.382;2022-10-04T04:25:32;94424.44;;;11.76;75.05
7768;BME280;3928;42.626;23.382;2022-10-04T04:28:09;94429.59;;;11.76;75.46
7768;BME280;3928;42.626;23.382;2022-10-04T04:30:43;94433.81;;;11.78;75.62
7768;BME280;3928;42.626;23.382;2022-10-04T04:33:17;94441.47;;;11.83;74.43
7768;BME280;3928;42.626;23.382;2022-10-04T04:35:52;94439.75;;;11.85;74.62
7768;BME280;3928;42.626;23.382;2022-10-04T04:38:22;94454.28;;;11.86;74.26
7768;BME280;3928;42.626;23.382;2022-10-04T04:40:50;94449.28;;;11.77;74.29
7768;BME280;3928;42.626;23.382;2022-10-04T04:43:24;94454.38;;;11.78;74.90
7768;BME280;3928;42.626;23.382;2022-10-04T04:45:53;94439.09;;;11.70;75.38
7768;BME280;3928;42.626;23.382;2022-10-04T04:48:22;94450.25;;;11.69;74.51
7768;BME280;3928;42.626;23.382;2022-10-04T04:50:53;94450.16;;;11.76;75.27
7768;BME280;3928;42.626;23.382;2022-10-04T04:53:22;94450.09;;;11.79;74.49
7768;BME280;3928;42.626;23.382;2022-10-04T04:55:55;94451.75;;;11.83;74.21
7768;BME280;3928;42.626;23.382;2022-10-04T04:58:26;94450.03;;;11.85;75.77
7768;BME280;3928;42.626;23.382;2022-10-04T05:00:58;94459.38;;;11.89;74.46
7768;BME280;3928;42.626;23.382;2022-10-04T05:03:26;94450.84;;;11.87;74.74
7768;BME280;3928;42.626;23.382;2022-10-04T05:05:55;94446.38;;;11.95;74.89
7768;BME280;3928;42.626;23.382;2022-10-04T05:08:26;94449.59;;;12.06;75.14
7768;BME280;3928;42.626;23.382;2022-10-04T05:11:01;94456.25;;;12.16;73.38
7768;BME280;3928;42.626;23.382;2022-10-04T05:13:36;94458.69;;;12.22;73.44
7768;BME280;3928;42.626;23.382;2022-10-04T05:16:09;94458.53;;;12.32;72.93
7768;BME280;3928;42.626;23.382;2022-10-04T05:18:36;94457.69;;;12.29;72.10
7768;BME280;3928;42.626;23.382;2022-10-04T05:21:05;94473.00;;;12.36;72.58
7768;BME280;3928;42.626;23.382;2022-10-04T05:23:34;94466.47;;;12.21;72.65
7768;BME280;3928;42.626;23.382;2022-10-04T05:26:01;94464.59;;;12.27;72.66
7768;BME280;3928;42.626;23.382;2022-10-04T05:28:28;94451.91;;;12.18;72.88
7768;BME280;3928;42.626;23.382;2022-10-04T05:31:16;94464.50;;;12.30;73.26
7768;BME280;3928;42.626;23.382;2022-10-04T05:33:50;94475.44;;;12.43;72.34
7768;BME280;3928;42.626;23.382;2022-10-04T05:36:43;94476.72;;;12.63;72.19
7768;BME280;3928;42.626;23.382;2022-10-04T05:39:19;94480.06;;;12.68;70.79
7768;BME280;3928;42.626;23.382;2022-10-04T05:41:55;94487.78;;;12.66;70.88
7768;BME280;3928;42.626;23.382;2022-10-04T05:44:26;94458.91;;;12.52;71.16
7768;BME280;3928;42.626;23.382;2022-10-04T05:46:55;94487.75;;;12.69;71.14
7768;BME280;3928;42.626;23.382;2022-10-04T05:49:24;94435.34;;;12.32;70.31
7768;BME280;3928;42.626;23.382;2022-10-04T05:51:54;94475.13;;;12.57;71.20
7768;BME280;3928;42.626;23.382;2022-10-04T05:54:26;94499.53;;;12.79;71.77
7768;BME280;3928;42.626;23.382;2022-10-04T05:57:24;94500.06;;;12.94;70.11
7768;BME280;3928;42.626;23.382;2022-10-04T06:00:02;94500.06;;;12.94;69.51
7768;BME280;3928;42.626;23.382;2022-10-04T06:02:48;94509.34;;;13.01;69.24
7768;BME280;3928;42.626;23.382;2022-10-04T06:05:23;94490.66;;;12.93;69.01
7768;BME280;3928;42.626;23.382;2022-10-04T06:07:57;94496.31;;;13.07;68.75
7768;BME280;3928;42.626;23.382;2022-10-04T06:10:43;94509.78;;;13.20;67.97
7768;BME280;3928;42.626;23.382;2022-10-04T06:13:26;94522.53;;;13.27;68.08
7768;BME280;3928;42.626;23.382;2022-10-04T06:16:14;94521.72;;;13.24;68.35
7768;BME280;3928;42.626;23.382;2022-10-04T06:19:07;94533.00;;;13.18;67.27
7768;BME280;3928;42.626;23.382;2022-10-04T06:24:24;94531.84;;;13.31;68.99
7768;BME280;3928;42.626;23.382;2022-10-04T06:26:57;94544.25;;;13.53;68.66
7768;BME280;3928;42.626;23.382;2022-10-04T06:29:29;94530.31;;;13.60;65.99
7768;BME280;3928;42.626;23.382;2022-10-04T06:32:19;94548.72;;;13.80;65.66
7768;BME280;3928;42.626;23.382;2022-10-04T06:35:12;94544.94;;;13.93;65.48
7768;BME280;3928;42.626;23.382;2022-10-04T06:38:04;94550.72;;;14.03;65.11
7768;BME280;3928;42.626;23.382;2022-10-04T06:40:57;94532.78;;;13.98;63.02
7768;BME280;3928;42.626;23.382;2022-10-04T06:43:51;94549.78;;;14.05;62.80
7768;BME280;3928;42.626;23.382;2022-10-04T06:46:29;94527.63;;;13.98;63.26
7768;BME280;3928;42.626;23.382;2022-10-04T06:49:15;94550.38;;;14.15;62.08
7768;BME280;3928;42.626;23.382;2022-10-04T06:52:08;94545.19;;;14.17;62.25
7768;BME280;3928;42.626;23.382;2022-10-04T06:54:49;94552.34;;;14.05;61.85
7768;BME280;3928;42.626;23.382;2022-10-04T06:57:52;94548.44;;;14.23;62.32
7768;BME280;3928;42.626;23.382;2022-10-04T07:00:25;94552.97;;;14.48;61.36
7768;BME280;3928;42.626;23.382;2022-10-04T07:02:57;94552.16;;;14.77;60.51
7768;BME280;3928;42.626;23.382;2022-10-04T07:05:30;94573.41;;;15.16;58.62
7768;BME280;3928;42.626;23.382;2022-10-04T07:08:08;94561.47;;;15.40;57.64
7768;BME280;3928;42.626;23.382;2022-10-04T07:10:44;94551.97;;;15.39;56.86
7768;BME280;3928;42.626;23.382;2022-10-04T07:13:28;94556.56;;;15.31;56.14
7768;BME280;3928;42.626;23.382;2022-10-04T07:16:00;94562.63;;;15.30;56.83
7768;BME280;3928;42.626;23.382;2022-10-04T07:18:34;94543.13;;;15.19;55.97
7768;BME280;3928;42.626;23.382;2022-10-04T07:21:05;94575.47;;;15.05;56.16
7768;BME280;3928;42.626;23.382;2022-10-04T07:23:40;94569.22;;;14.82;58.53
7768;BME280;3928;42.626;23.382;2022-10-04T07:26:18;94559.34;;;14.66;58.58
7768;BME280;3928;42.626;23.382;2022-10-04T07:28:49;94573.34;;;14.58;58.98
7768;BME280;3928;42.626;23.382;2022-10-04T07:31:35;94576.28;;;14.46;60.12
7768;BME280;3928;42.626;23.382;2022-10-04T07:34:08;94579.13;;;14.67;60.63
7768;BME280;3928;42.626;23.382;2022-10-04T07:36:42;94575.31;;;14.80;58.42
7768;BME280;3928;42.626;23.382;2022-10-04T07:39:13;94578.63;;;14.85;58.54
7768;BME280;3928;42.626;23.382;2022-10-04T07:41:49;94577.16;;;15.06;58.58
7768;BME280;3928;42.626;23.382;2022-10-04T07:44:24;94582.56;;;15.26;56.79
7768;BME280;3928;42.626;23.382;2022-10-04T07:46:57;94577.81;;;15.40;56.58
7768;BME280;3928;42.626;23.382;2022-10-04T07:49:25;94583.47;;;15.53;57.05
7768;BME280;3928;42.626;23.382;2022-10-04T07:54:48;94589.75;;;15.44;55.44
7768;BME280;3928;42.626;23.382;2022-10-04T07:57:21;94591.44;;;15.17;53.85
7768;BME280;3928;42.626;23.382;2022-10-04T07:59:56;94593.66;;;15.00;54.46
7768;BME280;3928;42.626;23.382;2022-10-04T08:02:33;94505.88;;;14.38;55.11
7768;BME280;3928;42.626;23.382;2022-10-04T08:05:18;94600.19;;;14.84;55.83
7768;BME280;3928;42.626;23.382;2022-10-04T08:08:01;94597.69;;;14.81;56.55
7768;BME280;3928;42.626;23.382;2022-10-04T08:10:38;94589.31;;;14.73;57.19
7768;BME280;3928;42.626;23.382;2022-10-04T08:13:20;94592.88;;;14.67;57.55
7768;BME280;3928;42.626;23.382;2022-10-04T08:15:49;94590.28;;;14.69;57.19
7768;BME280;3928;42.626;23.382;2022-10-04T08:18:28;94590.41;;;14.64;57.43
7768;BME280;3928;42.626;23.382;2022-10-04T08:21:00;94592.94;;;14.66;57.00
7768;BME280;3928;42.626;23.382;2022-10-04T08:26:39;94588.72;;;14.63;57.10
7768;BME280;3928;42.626;23.382;2022-10-04T08:29:23;94586.22;;;14.60;57.59
7768;BME280;3928;42.626;23.382;2022-10-04T08:32:20;94584.72;;;14.51;57.69
7768;BME280;3928;42.626;23.382;2022-10-04T08:37:53;94595.59;;;14.94;58.18
7768;BME280;3928;42.626;23.382;2022-10-04T08:40:50;94590.88;;;15.08;53.91
7768;BME280;3928;42.626;23.382;2022-10-04T08:43:41;94591.16;;;15.27;53.37
7768;BME280;3928;42.626;23.382;2022-10-04T08:52:36;94570.84;;;15.70;51.62
7768;BME280;3928;42.626;23.382;2022-10-04T08:55:40;94575.91;;;15.75;50.57
7768;BME280;3928;42.626;23.382;2022-10-04T08:58:36;94574.16;;;15.75;50.91
7768;BME280;3928;42.626;23.382;2022-10-04T09:01:26;94571.09;;;16.16;51.11
7768;BME280;3928;42.626;23.382;2022-10-04T09:07:31;94562.34;;;16.93;47.82
7768;BME280;3928;42.626;23.382;2022-10-04T09:10:19;94565.16;;;17.54;48.39
7768;BME280;3928;42.626;23.382;2022-10-04T09:13:30;94562.13;;;17.87;46.41
7768;BME280;3928;42.626;23.382;2022-10-04T09:16:20;94560.50;;;18.26;44.84
7768;BME280;3928;42.626;23.382;2022-10-04T09:19:08;94568.28;;;18.67;44.81
7768;BME280;3928;42.626;23.382;2022-10-04T09:21:53;94572.06;;;18.60;43.92
7768;BME280;3928;42.626;23.382;2022-10-04T09:27:34;94581.16;;;18.29;43.20
7768;BME280;3928;42.626;23.382;2022-10-04T09:30:16;94584.84;;;18.44;44.38
7768;BME280;3928;42.626;23.382;2022-10-04T09:33:11;94585.81;;;18.82;43.74
7768;BME280;3928;42.626;23.382;2022-10-04T09:35:56;94589.59;;;19.14;42.48
7768;BME280;3928;42.626;23.382;2022-10-04T09:38:43;94592.00;;;19.56;42.59
7768;BME280;3928;42.626;23.382;2022-10-04T09:41:39;94574.91;;;19.70;40.25
7768;BME280;3928;42.626;23.382;2022-10-04T09:44:29;94593.72;;;18.99;41.84
7768;BME280;3928;42.626;23.382;2022-10-04T09:47:20;94571.22;;;19.17;41.49
7768;BME280;3928;42.626;23.382;2022-10-04T09:50:17;94582.63;;;19.34;40.98
7768;BME280;3928;42.626;23.382;2022-10-04T09:52:58;94568.75;;;19.52;41.05
7768;BME280;3928;42.626;23.382;2022-10-04T09:55:50;94563.78;;;19.66;42.33
7768;BME280;3928;42.626;23.382;2022-10-04T09:58:55;94574.97;;;19.68;41.49
7768;BME280;3928;42.626;23.382;2022-10-04T10:01:31;94578.41;;;20.22;41.25
7768;BME280;3928;42.626;23.382;2022-10-04T10:04:33;94587.38;;;20.34;39.17
7768;BME280;3928;42.626;23.382;2022-10-04T10:07:17;94594.03;;;20.22;39.12
7768;BME280;3928;42.626;23.382;2022-10-04T10:09:53;94581.75;;;19.90;39.91
7768;BME280;3928;42.626;23.382;2022-10-04T10:13:05;94597.66;;;19.83;39.51
7768;BME280;3928;42.626;23.382;2022-10-04T10:15:58;94583.44;;;19.91;39.36
7768;BME280;3928;42.626;23.382;2022-10-04T10:18:39;94599.91;;;19.91;39.67
7768;BME280;3928;42.626;23.382;2022-10-04T10:21:26;94591.66;;;20.18;38.71
7768;BME280;3928;42.626;23.382;2022-10-04T10:24:19;94602.38;;;19.75;40.17
7768;BME280;3928;42.626;23.382;2022-10-04T10:26:58;94595.16;;;19.63;40.38
7768;BME280;3928;42.626;23.382;2022-10-04T10:32:42;94594.81;;;20.41;40.22
7768;BME280;3928;42.626;23.382;2022-10-04T10:35:40;94593.56;;;20.83;38.00
7768;BME280;3928;42.626;23.382;2022-10-04T10:38:28;94559.78;;;20.97;38.99
7768;BME280;3928;42.626;23.382;2022-10-04T10:41:24;94566.72;;;20.81;37.83
7768;BME280;3928;42.626;23.382;2022-10-04T10:44:03;94591.59;;;20.71;37.71
7768;BME280;3928;42.626;23.382;2022-10-04T10:46:49;94398.47;;;19.39;37.99
7768;BME280;3928;42.626;23.382;2022-10-04T10:49:37;94604.38;;;20.06;39.97
7768;BME280;3928;42.626;23.382;2022-10-04T10:55:31;94611.06;;;19.19;40.99
7768;BME280;3928;42.626;23.382;2022-10-04T10:58:25;94602.81;;;19.28;41.88
7768;BME280;3928;42.626;23.382;2022-10-04T11:01:06;94605.78;;;19.77;40.03
7768;BME280;3928;42.626;23.382;2022-10-04T11:07:08;94584.53;;;20.04;40.63
7768;BME280;3928;42.626;23.382;2022-10-04T11:10:09;94597.88;;;20.84;41.46
7768;BME280;3928;42.626;23.382;2022-10-04T11:12:54;94602.22;;;21.50;38.42
7768;BME280;3928;42.626;23.382;2022-10-04T11:15:54;94599.78;;;21.63;36.22
7768;BME280;3928;42.626;23.382;2022-10-04T11:18:54;94602.34;;;20.48;38.11
7768;BME280;3928;42.626;23.382;2022-10-04T11:21:52;94593.66;;;20.82;38.47
7768;BME280;3928;42.626;23.382;2022-10-04T11:25:02;94595.06;;;21.05;37.80
7768;BME280;3928;42.626;23.382;2022-10-04T11:27:45;94603.72;;;20.72;38.09
7768;BME280;3928;42.626;23.382;2022-10-04T11:30:19;94607.03;;;20.58;38.61
7768;BME280;3928;42.626;23.382;2022-10-04T11:33:31;94620.00;;;20.42;40.20
7768;BME280;3928;42.626;23.382;2022-10-04T11:36:24;94616.34;;;20.28;39.25
7768;BME280;3928;42.626;23.382;2022-10-04T11:39:02;94603.34;;;20.62;40.34
7768;BME280;3928;42.626;23.382;2022-10-04T11:41:43;94611.53;;;20.89;38.90
7768;BME280;3928;42.626;23.382;2022-10-04T11:44:33;94615.13;;;21.53;38.25
7768;BME280;3928;42.626;23.382;2022-10-04T11:47:17;94600.53;;;21.65;38.15
7768;BME280;3928;42.626;23.382;2022-10-04T11:50:02;94614.78;;;21.75;36.16
7768;BME280;3928;42.626;23.382;2022-10-04T11:53:05;94612.72;;;20.99;37.70
7768;BME280;3928;42.626;23.382;2022-10-04T11:55:59;94612.91;;;20.79;37.10
7768;BME280;3928;42.626;23.382;2022-10-04T11:58:38;94606.59;;;20.83;38.49
7768;BME280;3928;42.626;23.382;2022-10-04T12:01:29;94607.22;;;20.71;38.13
7768;BME280;3928;42.626;23.382;2022-10-04T12:04:45;94608.94;;;20.72;38.61
7768;BME280;3928;42.626;23.382;2022-10-04T12:07:41;94617.84;;;20.68;39.32
7768;BME280;3928;42.626;23.382;2022-10-04T12:10:21;94614.00;;;20.75;38.61
7768;BME280;3928;42.626;23.382;2022-10-04T12:16:07;94607.53;;;20.30;38.47
7768;BME280;3928;42.626;23.382;2022-10-04T12:21:54;94612.91;;;20.27;39.76
7768;BME280;3928;42.626;23.382;2022-10-04T12:25:03;94606.78;;;20.46;39.06
7768;BME280;3928;42.626;23.382;2022-10-04T12:27:56;94618.72;;;20.32;37.81
7768;BME280;3928;42.626;23.382;2022-10-04T12:30:32;94613.22;;;20.38;39.03
7768;BME280;3928;42.626;23.382;2022-10-04T12:33:12;94612.50;;;20.18;39.20
7768;BME280;3928;42.626;23.382;2022-10-04T12:35:53;94609.63;;;19.50;40.18
7768;BME280;3928;42.626;23.382;2022-10-04T12:38:44;94617.75;;;19.44;40.48
7768;BME280;3928;42.626;23.382;2022-10-04T12:41:35;94595.50;;;19.74;40.46
7768;BME280;3928;42.626;23.382;2022-10-04T12:44:23;94614.25;;;20.53;39.89
7768;BME280;3928;42.626;23.382;2022-10-04T12:49:48;94604.06;;;22.27;36.67
7768;BME280;3928;42.626;23.382;2022-10-04T12:52:22;94609.97;;;22.74;34.84
7768;BME280;3928;42.626;23.382;2022-10-04T12:54:55;94607.88;;;22.95;35.15
7768;BME280;3928;42.626;23.382;2022-10-04T12:57:40;94607.97;;;23.08;34.62
7768;BME280;3928;42.626;23.382;2022-10-04T13:00:18;94619.75;;;22.87;33.60
7768;BME280;3928;42.626;23.382;2022-10-04T13:03:20;94610.28;;;22.24;35.04
7768;BME280;3928;42.626;23.382;2022-10-04T13:05:59;94614.00;;;21.88;35.62
7768;BME280;3928;42.626;23.382;2022-10-04T13:08:55;94618.06;;;21.47;36.10
7768;BME280;3928;42.626;23.382;2022-10-04T13:11:40;94616.97;;;21.35;36.16
7768;BME280;3928;42.626;23.382;2022-10-04T13:17:17;94600.81;;;22.07;36.19
7768;BME280;3928;42.626;23.382;2022-10-04T13:19:59;94601.81;;;22.51;35.14
7768;BME280;3928;42.626;23.382;2022-10-04T13:22:35;94605.41;;;22.78;35.27
7768;BME280;3928;42.626;23.382;2022-10-04T13:25:18;94600.97;;;22.50;34.09
7768;BME280;3928;42.626;23.382;2022-10-04T13:27:51;94601.78;;;22.95;33.37
7768;BME280;3928;42.626;23.382;2022-10-04T13:30:23;94610.88;;;23.03;33.29
7768;BME280;3928;42.626;23.382;2022-10-04T13:32:59;94612.75;;;22.71;33.61
7768;BME280;3928;42.626;23.382;2022-10-04T13:35:33;94607.28;;;22.16;34.60
7768;BME280;3928;42.626;23.382;2022-10-04T13:38:23;94613.31;;;22.32;35.17
7768;BME280;3928;42.626;23.382;2022-10-04T13:41:03;94610.16;;;21.96;34.84
7768;BME280;3928;42.626;23.382;2022-10-04T13:44:15;94610.31;;;22.08;35.48
7768;BME280;3928;42.626;23.382;2022-10-04T13:47:02;94615.03;;;22.77;34.98
7768;BME280;3928;42.626;23.382;2022-10-04T13:49:42;94619.19;;;23.67;33.62
7768;BME280;3928;42.626;23.382;2022-10-04T13:52:22;94612.50;;;24.31;32.53
7768;BME280;3928;42.626;23.382;2022-10-04T13:55:22;94620.13;;;24.74;30.92
7768;BME280;3928;42.626;23.382;2022-10-04T13:58:21;94619.56;;;25.21;30.37
7768;BME280;3928;42.626;23.382;2022-10-04T14:01:04;94625.88;;;25.19;30.09
7768;BME280;3928;42.626;23.382;2022-10-04T14:03:51;94633.22;;;24.88;29.62
7768;BME280;3928;42.626;23.382;2022-10-04T14:06:48;94625.34;;;24.48;30.78
7768;BME280;3928;42.626;23.382;2022-10-04T14:18:50;94640.91;;;21.59;34.75
7768;BME280;3928;42.626;23.382;2022-10-04T14:21:49;94641.25;;;21.20;35.85
7768;BME280;3928;42.626;23.382;2022-10-04T14:24:41;94648.03;;;20.89;36.30
7768;BME280;3928;42.626;23.382;2022-10-04T14:30:21;94655.47;;;19.92;38.18
7768;BME280;3928;42.626;23.382;2022-10-04T14:33:14;94656.06;;;19.40;38.76
7768;BME280;3928;42.626;23.382;2022-10-04T14:35:54;94661.19;;;19.23;39.94
7768;BME280;3928;42.626;23.382;2022-10-04T14:38:53;94661.66;;;19.12;40.13
7768;BME280;3928;42.626;23.382;2022-10-04T14:42:09;94655.47;;;18.76;41.13
7768;BME280;3928;42.626;23.382;2022-10-04T14:50:51;94686.94;;;17.59;43.82
7768;BME280;3928;42.626;23.382;2022-10-04T14:53:28;94602.06;;;16.93;44.06
7768;BME280;3928;42.626;23.382;2022-10-04T14:56:15;94680.41;;;17.25;44.58
7768;BME280;3928;42.626;23.382;2022-10-04T14:58:59;94672.50;;;16.81;46.01
7768;BME280;3928;42.626;23.382;2022-10-04T15:01:32;94690.78;;;16.77;46.26
7768;BME280;3928;42.626;23.382;2022-10-04T15:04:12;94691.09;;;16.41;46.43
7768;BME280;3928;42.626;23.382;2022-10-04T15:06:46;94703.53;;;16.30;47.42
7768;BME280;3928;42.626;23.382;2022-10-04T15:09:29;94707.63;;;16.11;48.05
7768;BME280;3928;42.626;23.382;2022-10-04T15:12:01;94686.69;;;15.90;48.99
7768;BME280;3928;42.626;23.382;2022-10-04T15:15:14;94708.75;;;16.02;49.50
7768;BME280;3928;42.626;23.382;2022-10-04T15:17:55;94713.09;;;16.01;49.47
7768;BME280;3928;42.626;23.382;2022-10-04T15:20:31;94726.78;;;16.05;49.61
7768;BME280;3928;42.626;23.382;2022-10-04T15:23:09;94727.41;;;16.13;50.86
7768;BME280;3928;42.626;23.382;2022-10-04T15:25:42;94726.41;;;16.17;50.64